sensor_id;sensor_type;location;lat;lon;timestamp;P1;durP1;ratioP1;P2;durP2;ratioP2
61104;SDS011;46987;32.638;-115.438;2023-11-22T00:02:16;6.97;;;3.20;;
61104;SDS011;46987;32.638;-115.438;2023-11-22T00:04:43;8.07;;;1.70;;
61104;SDS011;46987;32.638;-115.438;2023-11-22T00:07:11;10.60;;;3.67;;
61104;SDS011;46987;32.638;-115.438;2023-11-22T00:09:38;5.25;;;1.20;;
61104;SDS011;46987;32.638;-115.438;2023-11-22T00:12:05;10.63;;;3.55;;
61104;SDS011;46987;32.638;-115.438;2023-11-22T00:14:32;13.65;;;7.28;;
61104;SDS011;46987;32.638;-115.438;2023-11-22T00:17:01;13.80;;;4.57;;
61104;SDS011;46987;32.638;-115.438;2023-11-22T00:19:28;10.57;;;3.78;;
61104;SDS011;46987;32.638;-115.438;2023-11-22T00:21:54;11.05;;;3.45;;
61104;SDS011;46987;32.638;-115.438;2023-11-22T00:24:23;13.35;;;3.42;;
61104;SDS011;46987;32.638;-115.438;2023-11-22T00:26:50;10.15;;;2.78;;
61104;SDS011;46987;32.638;-115.438;2023-11-22T00:29:17;12.77;;;2.75;;
61104;SDS011;46987;32.638;-115.438;2023-11-22T00:31:44;8.52;;;2.28;;
61104;SDS011;46987;32.638;-115.438;2023-11-22T00:34:11;6.95;;;1.50;;
61104;SDS011;46987;32.638;-115.438;2023-11-22T00:36:37;6.75;;;1.33;;
61104;SDS011;46987;32.638;-115.438;2023-11-22T00:39:04;10.35;;;1.80;;
61104;SDS011;46987;32.638;-115.438;2023-11-22T00:41:33;10.57;;;1.88;;
61104;SDS011;46987;32.638;-115.438;2023-11-22T00:44:01;10.38;;;1.83;;
61104;SDS011;46987;32.638;-115.438;2023-11-22T00:46:29;12.98;;;5.78;;
61104;SDS011;46987;32.638;-115.438;2023-11-22T00:48:56;13.65;;;7.90;;
61104;SDS011;46987;32.638;-115.438;2023-11-22T00:51:23;10.40;;;4.00;;
61104;SDS011;46987;32.638;-115.438;2023-11-22T00:53:50;9.43;;;3.22;;
61104;SDS011;46987;32.638;-115.438;2023-11-22T00:56:17;8.15;;;2.50;;
61104;SDS011;46987;32.638;-115.438;2023-11-22T00:58:45;9.15;;;2.53;;
61104;SDS011;46987;32.638;-115.438;2023-11-22T01:01:12;8.30;;;2.55;;
61104;SDS011;46987;32.638;-115.438;2023-11-22T01:03:39;10.73;;;3.03;;
61104;SDS011;46987;32.638;-115.438;2023-11-22T01:06:06;17.15;;;2.90;;
61104;SDS011;46987;32.638;-115.438;2023-11-22T01:08:34;17.35;;;3.00;;
61104;SDS011;46987;32.638;-115.438;2023-11-22T01:11:03;10.77;;;2.88;;
61104;SDS011;46987;32.638;-115.438;2023-11-22T01:13:29;12.85;;;3.17;;
61104;SDS011;46987;32.638;-115.438;2023-11-22T01:15:58;11.45;;;4.13;;
61104;SDS011;46987;32.638;-115.438;2023-11-22T01:18:25;13.43;;;3.38;;
61104;SDS011;46987;32.638;-115.438;2023-11-22T01:20:52;16.40;;;3.33;;
61104;SDS011;46987;32.638;-115.438;2023-11-22T01:23:21;15.50;;;3.45;;
61104;SDS011;46987;32.638;-115.438;2023-11-22T01:25:47;14.48;;;2.88;;
61104;SDS011;46987;32.638;-115.438;2023-11-22T01:28:15;20.10;;;4.03;;
61104;SDS011;46987;32.638;-115.438;2023-11-22T01:30:43;13.55;;;4.07;;
61104;SDS011;46987;32.638;-115.438;2023-11-22T01:33:14;18.58;;;5.38;;
61104;SDS011;46987;32.638;-115.438;2023-11-22T01:35:41;16.55;;;3.92;;
61104;SDS011;46987;32.638;-115.438;2023-11-22T01:38:08;14.73;;;3.17;;
61104;SDS011;46987;32.638;-115.438;2023-11-22T01:40:35;7.78;;;2.50;;
61104;SDS011;46987;32.638;-115.438;2023-11-22T01:43:12;6.65;;;2.40;;
61104;SDS011;46987;32.638;-115.438;2023-11-22T01:45:39;11.43;;;2.67;;
61104;SDS011;46987;32.638;-115.438;2023-11-22T01:48:06;12.85;;;2.58;;
61104;SDS011;46987;32.638;-115.438;2023-11-22T01:50:34;13.15;;;2.75;;
61104;SDS011;46987;32.638;-115.438;2023-11-22T01:53:02;11.85;;;2.78;;
61104;SDS011;46987;32.638;-115.438;2023-11-22T01:55:29;7.45;;;2.55;;
61104;SDS011;46987;32.638;-115.438;2023-11-22T01:57:56;9.32;;;2.47;;
61104;SDS011;46987;32.638;-115.438;2023-11-22T02:00:24;10.02;;;2.75;;
61104;SDS011;46987;32.638;-115.438;2023-11-22T02:02:52;9.93;;;2.60;;
61104;SDS011;46987;32.638;-115.438;2023-11-22T02:05:19;7.80;;;2.78;;
61104;SDS011;46987;32.638;-115.438;2023-11-22T02:07:48;15.95;;;3.58;;
61104;SDS011;46987;32.638;-115.438;2023-11-22T02:10:15;12.93;;;3.17;;
61104;SDS011;46987;32.638;-115.438;2023-11-22T02:12:43;9.13;;;2.80;;
61104;SDS011;46987;32.638;-115.438;2023-11-22T02:15:09;10.20;;;3.45;;
61104;SDS011;46987;32.638;-115.438;2023-11-22T02:17:36;13.23;;;4.30;;
61104;SDS011;46987;32.638;-115.438;2023-11-22T02:20:04;21.15;;;4.00;;
61104;SDS011;46987;32.638;-115.438;2023-11-22T02:22:41;10.57;;;3.45;;
61104;SDS011;46987;32.638;-115.438;2023-11-22T02:25:10;16.02;;;3.60;;
61104;SDS011;46987;32.638;-115.438;2023-11-22T02:27:37;13.35;;;3.15;;
61104;SDS011;46987;32.638;-115.438;2023-11-22T02:30:05;9.13;;;2.80;;
61104;SDS011;46987;32.638;-115.438;2023-11-22T02:32:35;12.05;;;3.03;;
61104;SDS011;46987;32.638;-115.438;2023-11-22T02:35:01;13.48;;;3.92;;
61104;SDS011;46987;32.638;-115.438;2023-11-22T02:37:30;15.50;;;3.10;;
61104;SDS011;46987;32.638;-115.438;2023-11-22T02:39:58;18.60;;;4.25;;
61104;SDS011;46987;32.638;-115.438;2023-11-22T02:42:30;18.15;;;3.70;;
61104;SDS011;46987;32.638;-115.438;2023-11-22T02:44:56;18.80;;;4.18;;
61104;SDS011;46987;32.638;-115.438;2023-11-22T02:47:23;10.52;;;3.60;;
61104;SDS011;46987;32.638;-115.438;2023-11-22T02:49:50;10.85;;;3.80;;
61104;SDS011;46987;32.638;-115.438;2023-11-22T02:52:17;15.73;;;4.07;;
61104;SDS011;46987;32.638;-115.438;2023-11-22T02:54:43;16.20;;;4.10;;
61104;SDS011;46987;32.638;-115.438;2023-11-22T02:57:11;15.63;;;4.35;;
61104;SDS011;46987;32.638;-115.438;2023-11-22T02:59:42;18.30;;;4.30;;
61104;SDS011;46987;32.638;-115.438;2023-11-22T03:02:09;14.82;;;4.10;;
61104;SDS011;46987;32.638;-115.438;2023-11-22T03:04:36;15.35;;;4.60;;
61104;SDS011;46987;32.638;-115.438;2023-11-22T03:07:03;17.95;;;4.10;;
61104;SDS011;46987;32.638;-115.438;2023-11-22T03:09:32;17.65;;;3.92;;
61104;SDS011;46987;32.638;-115.438;2023-11-22T03:11:59;18.75;;;3.80;;
61104;SDS011;46987;32.638;-115.438;2023-11-22T03:14:26;15.75;;;3.90;;
61104;SDS011;46987;32.638;-115.438;2023-11-22T03:16:54;20.17;;;5.30;;
61104;SDS011;46987;32.638;-115.438;2023-11-22T03:19:21;19.27;;;4.22;;
61104;SDS011;46987;32.638;-115.438;2023-11-22T03:21:48;14.90;;;3.83;;
61104;SDS011;46987;32.638;-115.438;2023-11-22T03:24:15;15.10;;;3.60;;
61104;SDS011;46987;32.638;-115.438;2023-11-22T03:26:42;11.82;;;3.75;;
61104;SDS011;46987;32.638;-115.438;2023-11-22T03:29:09;16.13;;;4.20;;
61104;SDS011;46987;32.638;-115.438;2023-11-22T03:31:35;16.80;;;4.25;;
61104;SDS011;46987;32.638;-115.438;2023-11-22T03:34:04;19.85;;;4.45;;
61104;SDS011;46987;32.638;-115.438;2023-11-22T03:36:31;17.63;;;5.43;;
61104;SDS011;46987;32.638;-115.438;2023-11-22T03:38:58;15.63;;;4.80;;
61104;SDS011;46987;32.638;-115.438;2023-11-22T03:41:25;24.38;;;5.82;;
61104;SDS011;46987;32.638;-115.438;2023-11-22T03:43:53;15.35;;;6.30;;
61104;SDS011;46987;32.638;-115.438;2023-11-22T03:46:20;21.02;;;5.93;;
61104;SDS011;46987;32.638;-115.438;2023-11-22T03:48:46;24.77;;;6.88;;
61104;SDS011;46987;32.638;-115.438;2023-11-22T03:51:15;26.17;;;7.15;;
61104;SDS011;46987;32.638;-115.438;2023-11-22T03:53:42;22.70;;;8.82;;
61104;SDS011;46987;32.638;-115.438;2023-11-22T03:56:08;20.80;;;8.60;;
61104;SDS011;46987;32.638;-115.438;2023-11-22T03:58:35;28.67;;;8.70;;
61104;SDS011;46987;32.638;-115.438;2023-11-22T04:01:03;21.35;;;7.70;;
61104;SDS011;46987;32.638;-115.438;2023-11-22T04:03:29;24.98;;;7.75;;
61104;SDS011;46987;32.638;-115.438;2023-11-22T04:05:56;24.42;;;7.43;;
61104;SDS011;46987;32.638;-115.438;2023-11-22T04:08:25;18.60;;;7.03;;
61104;SDS011;46987;32.638;-115.438;2023-11-22T04:10:52;20.38;;;7.50;;
61104;SDS011;46987;32.638;-115.438;2023-11-22T04:13:18;20.85;;;7.25;;
61104;SDS011;46987;32.638;-115.438;2023-11-22T04:15:45;23.15;;;6.95;;
61104;SDS011;46987;32.638;-115.438;2023-11-22T04:18:12;28.92;;;8.00;;
61104;SDS011;46987;32.638;-115.438;2023-11-22T04:20:39;20.13;;;7.30;;
61104;SDS011;46987;32.638;-115.438;2023-11-22T04:23:06;27.55;;;7.93;;
61104;SDS011;46987;32.638;-115.438;2023-11-22T04:25:34;17.88;;;7.32;;
61104;SDS011;46987;32.638;-115.438;2023-11-22T04:28:01;24.25;;;8.52;;
61104;SDS011;46987;32.638;-115.438;2023-11-22T04:30:28;23.85;;;8.75;;
61104;SDS011;46987;32.638;-115.438;2023-11-22T04:32:54;18.90;;;8.68;;
61104;SDS011;46987;32.638;-115.438;2023-11-22T04:35:21;28.13;;;12.93;;
61104;SDS011;46987;32.638;-115.438;2023-11-22T04:37:48;21.70;;;9.68;;
61104;SDS011;46987;32.638;-115.438;2023-11-22T04:40:15;18.92;;;9.00;;
61104;SDS011;46987;32.638;-115.438;2023-11-22T04:42:43;24.33;;;8.45;;
61104;SDS011;46987;32.638;-115.438;2023-11-22T04:45:11;18.55;;;8.13;;
61104;SDS011;46987;32.638;-115.438;2023-11-22T04:47:37;18.75;;;7.97;;
61104;SDS011;46987;32.638;-115.438;2023-11-22T04:50:04;20.02;;;8.02;;
61104;SDS011;46987;32.638;-115.438;2023-11-22T04:52:32;22.42;;;7.68;;
61104;SDS011;46987;32.638;-115.438;2023-11-22T04:54:58;29.17;;;9.98;;
61104;SDS011;46987;32.638;-115.438;2023-11-22T04:57:25;18.08;;;8.68;;
61104;SDS011;46987;32.638;-115.438;2023-11-22T04:59:54;22.15;;;9.10;;
61104;SDS011;46987;32.638;-115.438;2023-11-22T05:02:20;19.83;;;7.22;;
61104;SDS011;46987;32.638;-115.438;2023-11-22T05:04:47;15.82;;;6.93;;
61104;SDS011;46987;32.638;-115.438;2023-11-22T05:07:15;21.58;;;7.60;;
61104;SDS011;46987;32.638;-115.438;2023-11-22T05:09:42;21.15;;;9.20;;
61104;SDS011;46987;32.638;-115.438;2023-11-22T05:12:12;18.45;;;9.00;;
61104;SDS011;46987;32.638;-115.438;2023-11-22T05:14:39;25.00;;;9.52;;
61104;SDS011;46987;32.638;-115.438;2023-11-22T05:17:08;17.95;;;9.63;;
61104;SDS011;46987;32.638;-115.438;2023-11-22T05:19:35;22.38;;;9.43;;
61104;SDS011;46987;32.638;-115.438;2023-11-22T05:22:01;17.13;;;7.80;;
61104;SDS011;46987;32.638;-115.438;2023-11-22T05:24:29;18.73;;;8.73;;
61104;SDS011;46987;32.638;-115.438;2023-11-22T05:26:56;15.75;;;7.53;;
61104;SDS011;46987;32.638;-115.438;2023-11-22T05:29:23;14.02;;;7.82;;
61104;SDS011;46987;32.638;-115.438;2023-11-22T05:31:49;11.10;;;7.28;;
61104;SDS011;46987;32.638;-115.438;2023-11-22T05:34:18;18.83;;;8.57;;
61104;SDS011;46987;32.638;-115.438;2023-11-22T05:36:45;17.30;;;8.00;;
61104;SDS011;46987;32.638;-115.438;2023-11-22T05:39:11;14.75;;;8.38;;
61104;SDS011;46987;32.638;-115.438;2023-11-22T05:41:38;16.13;;;8.38;;
61104;SDS011;46987;32.638;-115.438;2023-11-22T05:44:05;13.38;;;7.55;;
61104;SDS011;46987;32.638;-115.438;2023-11-22T05:46:32;23.00;;;8.60;;
61104;SDS011;46987;32.638;-115.438;2023-11-22T05:48:59;11.80;;;6.95;;
61104;SDS011;46987;32.638;-115.438;2023-11-22T05:51:28;13.15;;;7.35;;
61104;SDS011;46987;32.638;-115.438;2023-11-22T05:53:55;14.52;;;6.88;;
61104;SDS011;46987;32.638;-115.438;2023-11-22T05:56:22;20.05;;;7.25;;
61104;SDS011;46987;32.638;-115.438;2023-11-22T05:58:48;12.68;;;6.80;;
61104;SDS011;46987;32.638;-115.438;2023-11-22T06:01:15;14.93;;;6.95;;
61104;SDS011;46987;32.638;-115.438;2023-11-22T06:03:42;20.08;;;6.63;;
61104;SDS011;46987;32.638;-115.438;2023-11-22T06:06:09;13.70;;;7.43;;
61104;SDS011;46987;32.638;-115.438;2023-11-22T06:08:37;18.05;;;7.07;;
61104;SDS011;46987;32.638;-115.438;2023-11-22T06:11:04;15.02;;;7.43;;
61104;SDS011;46987;32.638;-115.438;2023-11-22T06:13:31;13.80;;;7.38;;
61104;SDS011;46987;32.638;-115.438;2023-11-22T06:15:58;16.10;;;7.35;;
61104;SDS011;46987;32.638;-115.438;2023-11-22T06:18:24;11.55;;;6.70;;
61104;SDS011;46987;32.638;-115.438;2023-11-22T06:20:56;14.75;;;6.38;;
61104;SDS011;46987;32.638;-115.438;2023-11-22T06:23:24;12.13;;;6.60;;
61104;SDS011;46987;32.638;-115.438;2023-11-22T06:25:53;15.38;;;7.13;;
61104;SDS011;46987;32.638;-115.438;2023-11-22T06:28:20;14.40;;;6.60;;
61104;SDS011;46987;32.638;-115.438;2023-11-22T06:30:48;13.38;;;7.10;;
61104;SDS011;46987;32.638;-115.438;2023-11-22T06:33:14;12.75;;;7.40;;
61104;SDS011;46987;32.638;-115.438;2023-11-22T06:35:41;19.80;;;7.68;;
61104;SDS011;46987;32.638;-115.438;2023-11-22T06:38:08;14.75;;;7.28;;
61104;SDS011;46987;32.638;-115.438;2023-11-22T06:40:35;14.38;;;6.43;;
61104;SDS011;46987;32.638;-115.438;2023-11-22T06:43:04;18.08;;;6.55;;
61104;SDS011;46987;32.638;-115.438;2023-11-22T06:45:30;12.70;;;6.13;;
61104;SDS011;46987;32.638;-115.438;2023-11-22T06:47:57;12.48;;;5.85;;
61104;SDS011;46987;32.638;-115.438;2023-11-22T06:50:24;11.18;;;6.00;;
61104;SDS011;46987;32.638;-115.438;2023-11-22T06:52:51;14.82;;;5.88;;
61104;SDS011;46987;32.638;-115.438;2023-11-22T06:55:19;16.88;;;5.13;;
61104;SDS011;46987;32.638;-115.438;2023-11-22T06:57:46;11.48;;;4.03;;
61104;SDS011;46987;32.638;-115.438;2023-11-22T07:00:14;13.02;;;4.13;;
61104;SDS011;46987;32.638;-115.438;2023-11-22T07:02:43;13.55;;;4.30;;
61104;SDS011;46987;32.638;-115.438;2023-11-22T07:05:09;10.65;;;3.95;;
61104;SDS011;46987;32.638;-115.438;2023-11-22T07:07:36;7.88;;;3.67;;
61104;SDS011;46987;32.638;-115.438;2023-11-22T07:10:03;9.52;;;3.65;;
61104;SDS011;46987;32.638;-115.438;2023-11-22T07:12:31;14.02;;;4.22;;
61104;SDS011;46987;32.638;-115.438;2023-11-22T07:14:58;9.57;;;3.60;;
61104;SDS011;46987;32.638;-115.438;2023-11-22T07:17:27;8.25;;;2.88;;
61104;SDS011;46987;32.638;-115.438;2023-11-22T07:19:55;11.82;;;3.97;;
61104;SDS011;46987;32.638;-115.438;2023-11-22T07:22:21;10.02;;;3.60;;
61104;SDS011;46987;32.638;-115.438;2023-11-22T07:24:50;16.13;;;3.80;;
61104;SDS011;46987;32.638;-115.438;2023-11-22T07:27:26;11.05;;;3.33;;
61104;SDS011;46987;32.638;-115.438;2023-11-22T07:29:53;8.75;;;3.40;;
61104;SDS011;46987;32.638;-115.438;2023-11-22T07:32:19;8.20;;;3.35;;
61104;SDS011;46987;32.638;-115.438;2023-11-22T07:34:48;9.38;;;3.90;;
61104;SDS011;46987;32.638;-115.438;2023-11-22T07:37:15;7.75;;;2.90;;
61104;SDS011;46987;32.638;-115.438;2023-11-22T07:39:44;8.65;;;2.78;;
61104;SDS011;46987;32.638;-115.438;2023-11-22T07:42:10;7.82;;;3.30;;
61104;SDS011;46987;32.638;-115.438;2023-11-22T07:44:37;9.52;;;2.90;;
61104;SDS011;46987;32.638;-115.438;2023-11-22T07:47:04;13.02;;;2.80;;
61104;SDS011;46987;32.638;-115.438;2023-11-22T07:49:35;10.45;;;2.78;;
61104;SDS011;46987;32.638;-115.438;2023-11-22T07:52:07;10.88;;;2.47;;
61104;SDS011;46987;32.638;-115.438;2023-11-22T07:54:33;6.55;;;1.88;;
61104;SDS011;46987;32.638;-115.438;2023-11-22T07:57:01;5.80;;;2.13;;
61104;SDS011;46987;32.638;-115.438;2023-11-22T07:59:28;4.30;;;1.27;;
61104;SDS011;46987;32.638;-115.438;2023-11-22T08:01:55;4.63;;;1.63;;
61104;SDS011;46987;32.638;-115.438;2023-11-22T08:04:23;4.18;;;1.30;;
61104;SDS011;46987;32.638;-115.438;2023-11-22T08:06:51;4.78;;;0.90;;
61104;SDS011;46987;32.638;-115.438;2023-11-22T08:09:20;4.78;;;1.35;;
61104;SDS011;46987;32.638;-115.438;2023-11-22T08:11:46;4.45;;;1.58;;
61104;SDS011;46987;32.638;-115.438;2023-11-22T08:14:13;2.13;;;0.90;;
61104;SDS011;46987;32.638;-115.438;2023-11-22T08:16:40;4.45;;;0.98;;
61104;SDS011;46987;32.638;-115.438;2023-11-22T08:19:08;4.68;;;0.98;;
61104;SDS011;46987;32.638;-115.438;2023-11-22T08:21:35;4.28;;;1.15;;
61104;SDS011;46987;32.638;-115.438;2023-11-22T08:24:02;1.85;;;0.82;;
61104;SDS011;46987;32.638;-115.438;2023-11-22T08:26:31;4.05;;;1.20;;
61104;SDS011;46987;32.638;-115.438;2023-11-22T08:28:57;5.43;;;1.25;;
61104;SDS011;46987;32.638;-115.438;2023-11-22T08:31:24;4.85;;;1.00;;
61104;SDS011;46987;32.638;-115.438;2023-11-22T08:33:51;4.18;;;1.20;;
61104;SDS011;46987;32.638;-115.438;2023-11-22T08:36:18;6.63;;;1.55;;
61104;SDS011;46987;32.638;-115.438;2023-11-22T08:38:44;4.97;;;1.48;;
61104;SDS011;46987;32.638;-115.438;2023-11-22T08:41:12;5.70;;;1.70;;
61104;SDS011;46987;32.638;-115.438;2023-11-22T08:43:41;6.90;;;1.50;;
61104;SDS011;46987;32.638;-115.438;2023-11-22T08:46:08;5.85;;;1.85;;
61104;SDS011;46987;32.638;-115.438;2023-11-22T08:48:35;6.18;;;1.10;;
61104;SDS011;46987;32.638;-115.438;2023-11-22T08:51:01;4.03;;;1.15;;
61104;SDS011;46987;32.638;-115.438;2023-11-22T08:53:30;6.20;;;1.58;;
61104;SDS011;46987;32.638;-115.438;2023-11-22T08:55:56;7.70;;;1.50;;
61104;SDS011;46987;32.638;-115.438;2023-11-22T08:58:23;4.88;;;1.33;;
61104;SDS011;46987;32.638;-115.438;2023-11-22T09:00:52;6.93;;;1.50;;
61104;SDS011;46987;32.638;-115.438;2023-11-22T09:03:20;3.65;;;1.17;;
61104;SDS011;46987;32.638;-115.438;2023-11-22T09:05:47;5.25;;;1.30;;
61104;SDS011;46987;32.638;-115.438;2023-11-22T09:08:15;5.30;;;1.48;;
61104;SDS011;46987;32.638;-115.438;2023-11-22T09:10:41;6.10;;;1.67;;
61104;SDS011;46987;32.638;-115.438;2023-11-22T09:13:08;7.03;;;1.60;;
61104;SDS011;46987;32.638;-115.438;2023-11-22T09:15:36;7.03;;;2.17;;
61104;SDS011;46987;32.638;-115.438;2023-11-22T09:18:06;7.13;;;1.60;;
61104;SDS011;46987;32.638;-115.438;2023-11-22T09:20:34;5.15;;;1.70;;
61104;SDS011;46987;32.638;-115.438;2023-11-22T09:23:01;7.55;;;2.13;;
61104;SDS011;46987;32.638;-115.438;2023-11-22T09:25:27;6.57;;;2.83;;
61104;SDS011;46987;32.638;-115.438;2023-11-22T09:27:55;6.60;;;2.20;;
61104;SDS011;46987;32.638;-115.438;2023-11-22T09:30:22;6.57;;;3.13;;
61104;SDS011;46987;32.638;-115.438;2023-11-22T09:32:58;7.30;;;2.60;;
61104;SDS011;46987;32.638;-115.438;2023-11-22T09:35:27;8.95;;;2.85;;
61104;SDS011;46987;32.638;-115.438;2023-11-22T09:38:03;5.03;;;2.22;;
61104;SDS011;46987;32.638;-115.438;2023-11-22T09:40:30;5.78;;;2.60;;
61104;SDS011;46987;32.638;-115.438;2023-11-22T09:43:00;7.97;;;2.15;;
61104;SDS011;46987;32.638;-115.438;2023-11-22T09:45:28;8.43;;;2.13;;
61104;SDS011;46987;32.638;-115.438;2023-11-22T09:47:59;5.75;;;2.08;;
61104;SDS011;46987;32.638;-115.438;2023-11-22T09:50:29;7.40;;;2.08;;
61104;SDS011;46987;32.638;-115.438;2023-11-22T09:52:59;4.55;;;2.17;;
61104;SDS011;46987;32.638;-115.438;2023-11-22T09:55:27;4.13;;;1.85;;
61104;SDS011;46987;32.638;-115.438;2023-11-22T09:57:55;5.10;;;1.80;;
61104;SDS011;46987;32.638;-115.438;2023-11-22T10:00:23;7.63;;;2.25;;
61104;SDS011;46987;32.638;-115.438;2023-11-22T10:02:53;5.50;;;1.90;;
61104;SDS011;46987;32.638;-115.438;2023-11-22T10:05:20;4.13;;;1.52;;
61104;SDS011;46987;32.638;-115.438;2023-11-22T10:07:49;5.70;;;2.03;;
61104;SDS011;46987;32.638;-115.438;2023-11-22T10:10:16;9.23;;;2.00;;
61104;SDS011;46987;32.638;-115.438;2023-11-22T10:12:45;4.32;;;2.20;;
61104;SDS011;46987;32.638;-115.438;2023-11-22T10:15:18;7.68;;;2.42;;
61104;SDS011;46987;32.638;-115.438;2023-11-22T10:18:02;7.15;;;2.20;;
61104;SDS011;46987;32.638;-115.438;2023-11-22T10:20:46;8.48;;;2.50;;
61104;SDS011;46987;32.638;-115.438;2023-11-22T10:23:21;5.90;;;2.50;;
61104;SDS011;46987;32.638;-115.438;2023-11-22T10:25:59;8.02;;;2.63;;
61104;SDS011;46987;32.638;-115.438;2023-11-22T10:28:38;6.82;;;2.33;;
61104;SDS011;46987;32.638;-115.438;2023-11-22T10:31:20;8.07;;;2.78;;
61104;SDS011;46987;32.638;-115.438;2023-11-22T10:34:22;11.73;;;2.65;;
61104;SDS011;46987;32.638;-115.438;2023-11-22T10:36:55;6.75;;;2.67;;
61104;SDS011;46987;32.638;-115.438;2023-11-22T10:42:18;8.77;;;2.70;;
61104;SDS011;46987;32.638;-115.438;2023-11-22T10:44:56;7.30;;;2.80;;
61104;SDS011;46987;32.638;-115.438;2023-11-22T10:47:43;8.02;;;2.85;;
61104;SDS011;46987;32.638;-115.438;2023-11-22T10:50:15;5.90;;;2.50;;
61104;SDS011;46987;32.638;-115.438;2023-11-22T10:52:44;6.40;;;2.58;;
61104;SDS011;46987;32.638;-115.438;2023-11-22T10:55:12;7.30;;;2.33;;
61104;SDS011;46987;32.638;-115.438;2023-11-22T10:57:45;7.85;;;2.55;;
61104;SDS011;46987;32.638;-115.438;2023-11-22T11:00:15;7.05;;;2.75;;
61104;SDS011;46987;32.638;-115.438;2023-11-22T11:02:44;14.52;;;2.83;;
61104;SDS011;46987;32.638;-115.438;2023-11-22T11:05:15;8.48;;;2.60;;
61104;SDS011;46987;32.638;-115.438;2023-11-22T11:07:49;8.23;;;2.38;;
61104;SDS011;46987;32.638;-115.438;2023-11-22T11:12:45;4.93;;;2.15;;
61104;SDS011;46987;32.638;-115.438;2023-11-22T11:15:12;5.90;;;2.65;;
61104;SDS011;46987;32.638;-115.438;2023-11-22T11:17:39;8.88;;;2.15;;
61104;SDS011;46987;32.638;-115.438;2023-11-22T11:20:06;5.75;;;2.08;;
61104;SDS011;46987;32.638;-115.438;2023-11-22T11:22:33;7.95;;;2.22;;
61104;SDS011;46987;32.638;-115.438;2023-11-22T11:25:04;5.32;;;2.13;;
61104;SDS011;46987;32.638;-115.438;2023-11-22T11:27:33;5.70;;;2.22;;
61104;SDS011;46987;32.638;-115.438;2023-11-22T11:30:01;7.72;;;2.10;;
61104;SDS011;46987;32.638;-115.438;2023-11-22T11:32:31;3.97;;;1.80;;
61104;SDS011;46987;32.638;-115.438;2023-11-22T11:35:01;6.53;;;2.35;;
61104;SDS011;46987;32.638;-115.438;2023-11-22T11:37:33;4.47;;;1.90;;
61104;SDS011;46987;32.638;-115.438;2023-11-22T11:39:59;5.13;;;1.73;;
61104;SDS011;46987;32.638;-115.438;2023-11-22T11:42:26;6.85;;;2.58;;
61104;SDS011;46987;32.638;-115.438;2023-11-22T11:45:07;5.97;;;2.10;;
61104;SDS011;46987;32.638;-115.438;2023-11-22T11:47:35;5.00;;;2.17;;
61104;SDS011;46987;32.638;-115.438;2023-11-22T11:50:02;9.02;;;1.83;;
61104;SDS011;46987;32.638;-115.438;2023-11-22T11:52:28;4.72;;;2.13;;
61104;SDS011;46987;32.638;-115.438;2023-11-22T11:54:57;4.93;;;2.20;;
61104;SDS011;46987;32.638;-115.438;2023-11-22T11:57:24;17.88;;;3.17;;
61104;SDS011;46987;32.638;-115.438;2023-11-22T11:59:50;6.88;;;2.30;;
61104;SDS011;46987;32.638;-115.438;2023-11-22T12:02:20;5.22;;;2.35;;
61104;SDS011;46987;32.638;-115.438;2023-11-22T12:04:47;6.18;;;2.40;;
61104;SDS011;46987;32.638;-115.438;2023-11-22T12:07:14;8.27;;;2.20;;
61104;SDS011;46987;32.638;-115.438;2023-11-22T12:09:41;7.82;;;2.80;;
61104;SDS011;46987;32.638;-115.438;2023-11-22T12:12:07;8.02;;;2.90;;
61104;SDS011;46987;32.638;-115.438;2023-11-22T12:14:34;8.70;;;2.72;;
61104;SDS011;46987;32.638;-115.438;2023-11-22T12:17:01;11.80;;;3.40;;
61104;SDS011;46987;32.638;-115.438;2023-11-22T12:19:29;9.98;;;3.13;;
61104;SDS011;46987;32.638;-115.438;2023-11-22T12:22:00;9.25;;;3.30;;
61104;SDS011;46987;32.638;-115.438;2023-11-22T12:24:27;6.97;;;2.92;;
61104;SDS011;46987;32.638;-115.438;2023-11-22T12:26:54;8.50;;;2.88;;
61104;SDS011;46987;32.638;-115.438;2023-11-22T12:29:23;9.45;;;2.88;;
61104;SDS011;46987;32.638;-115.438;2023-11-22T12:31:50;9.02;;;3.40;;
61104;SDS011;46987;32.638;-115.438;2023-11-22T12:34:19;9.52;;;3.47;;
61104;SDS011;46987;32.638;-115.438;2023-11-22T12:36:48;8.25;;;3.30;;
61104;SDS011;46987;32.638;-115.438;2023-11-22T12:39:14;8.65;;;3.17;;
61104;SDS011;46987;32.638;-115.438;2023-11-22T12:41:45;13.73;;;5.18;;
61104;SDS011;46987;32.638;-115.438;2023-11-22T12:44:12;10.05;;;4.13;;
61104;SDS011;46987;32.638;-115.438;2023-11-22T12:46:46;9.30;;;4.50;;
61104;SDS011;46987;32.638;-115.438;2023-11-22T12:49:15;6.85;;;3.90;;
61104;SDS011;46987;32.638;-115.438;2023-11-22T12:51:47;15.73;;;5.05;;
61104;SDS011;46987;32.638;-115.438;2023-11-22T12:54:14;12.25;;;5.05;;
61104;SDS011;46987;32.638;-115.438;2023-11-22T12:56:41;11.32;;;4.30;;
61104;SDS011;46987;32.638;-115.438;2023-11-22T12:59:08;9.85;;;4.95;;
61104;SDS011;46987;32.638;-115.438;2023-11-22T13:01:35;14.50;;;4.45;;
61104;SDS011;46987;32.638;-115.438;2023-11-22T13:04:01;11.02;;;4.65;;
61104;SDS011;46987;32.638;-115.438;2023-11-22T13:06:29;13.90;;;5.57;;
61104;SDS011;46987;32.638;-115.438;2023-11-22T13:08:58;17.65;;;5.60;;
61104;SDS011;46987;32.638;-115.438;2023-11-22T13:11:24;13.02;;;5.10;;
61104;SDS011;46987;32.638;-115.438;2023-11-22T13:13:52;14.98;;;5.38;;
61104;SDS011;46987;32.638;-115.438;2023-11-22T13:16:18;10.38;;;5.40;;
61104;SDS011;46987;32.638;-115.438;2023-11-22T13:18:45;14.18;;;5.57;;
61104;SDS011;46987;32.638;-115.438;2023-11-22T13:21:12;14.50;;;5.03;;
61104;SDS011;46987;32.638;-115.438;2023-11-22T13:23:38;15.82;;;5.80;;
61104;SDS011;46987;32.638;-115.438;2023-11-22T13:26:07;13.15;;;5.00;;
61104;SDS011;46987;32.638;-115.438;2023-11-22T13:28:39;11.95;;;5.22;;
61104;SDS011;46987;32.638;-115.438;2023-11-22T13:31:07;9.73;;;5.18;;
61104;SDS011;46987;32.638;-115.438;2023-11-22T13:33:34;14.23;;;5.68;;
61104;SDS011;46987;32.638;-115.438;2023-11-22T13:36:01;10.50;;;4.85;;
61104;SDS011;46987;32.638;-115.438;2023-11-22T13:38:27;12.73;;;5.10;;
61104;SDS011;46987;32.638;-115.438;2023-11-22T13:40:54;12.05;;;5.03;;
61104;SDS011;46987;32.638;-115.438;2023-11-22T13:43:22;10.93;;;5.10;;
61104;SDS011;46987;32.638;-115.438;2023-11-22T13:45:49;11.50;;;5.90;;
61104;SDS011;46987;32.638;-115.438;2023-11-22T13:48:16;12.25;;;5.28;;
61104;SDS011;46987;32.638;-115.438;2023-11-22T13:50:43;11.57;;;5.45;;
61104;SDS011;46987;32.638;-115.438;2023-11-22T13:53:10;12.30;;;6.97;;
61104;SDS011;46987;32.638;-115.438;2023-11-22T13:55:37;14.93;;;5.80;;
61104;SDS011;46987;32.638;-115.438;2023-11-22T13:58:04;15.00;;;5.85;;
61104;SDS011;46987;32.638;-115.438;2023-11-22T14:00:33;14.98;;;6.10;;
61104;SDS011;46987;32.638;-115.438;2023-11-22T14:03:01;12.90;;;5.22;;
61104;SDS011;46987;32.638;-115.438;2023-11-22T14:05:34;13.45;;;5.13;;
61104;SDS011;46987;32.638;-115.438;2023-11-22T14:08:02;14.43;;;4.82;;
61104;SDS011;46987;32.638;-115.438;2023-11-22T14:10:30;10.35;;;5.05;;
61104;SDS011;46987;32.638;-115.438;2023-11-22T14:12:57;14.13;;;4.93;;